LEPA Airport Information

Runway Information
Runway 06R Length 9842 ft width 148 ft
Elevation 24 ft Threshold 1345 ft Heading 59
Runway 24L Length 9842 ft Width 148 ft
Elevation 8 ft Threshold ft Heading 239
Runway 06L Length 10728 ft width 148 ft
Elevation 15 ft Threshold ft Heading 59
Runway 24R Length 10728 ft Width 148 ft
Elevation 8 ft Threshold 230 ft Heading 239
Airport Frequencies
Type APP Name APP Frequency 118.95 MHZ
Type ATIS Name ATIS Frequency 119.25 MHZ
Type CLD Name CLNC DEL Frequency 121.6 MHZ
Type GND Name GND Frequency 121.7 MHZ
Type OPS Name OPS Frequency 130.25 MHZ
Type TWR Name TWR Frequency 118.3 MHZ
Airport Navaids
Airport Weather Information & NOTAM
ADDS - METARS form results

(0656 UTC 14 August 2022)
Data provider http://aviationweather.gov/metar/data/
 
METAR text: LEPA 140630Z 24006KT 210V270 9999 FEW060 32/19 Q1009 NOSIG
Conditions at: LEPA (PALMA DE MALLORC, ES) observed 0630 UTC 14 August 2022
Temperature: 32.0°C (90°F)
Dewpoint: 19.0°C (66°F) [RH = 46%]
Pressure (altimeter): 29.79 inches Hg (1009.0 mb)
Winds: from the WSW (240 degrees) at 7 MPH (6 knots; 3.1 m/s)
Visibility: 6 or more miles (10+ km)
Ceiling: at least 12,000 feet AGL
Clouds: few clouds at 6000 feet AGL
Weather: no significant weather observed at this time

METAR text: LEPA 140600Z 05004KT 350V110 9999 FEW050 27/16 Q1009 NOSIG
Conditions at: LEPA (PALMA DE MALLORC, ES) observed 0600 UTC 14 August 2022
Temperature: 27.0°C (81°F)
Dewpoint: 16.0°C (61°F) [RH = 51%]
Pressure (altimeter): 29.79 inches Hg (1009.0 mb)
Winds: from the NE (50 degrees) at 5 MPH (4 knots; 2.1 m/s)
Visibility: 6 or more miles (10+ km)
Ceiling: at least 12,000 feet AGL
Clouds: few clouds at 5000 feet AGL
Weather: no significant weather observed at this time

Forecast for: AMD
Text: TAF AMD LEPA 140638Z 1406/1506 24010KT 9999 FEW030 TX38/1412Z TN23/1506Z
Forecast period: 0600 to 1800 UTC 14 August 2022
Forecast type: FROM: standard forecast or significant change
Winds: from the WSW (240 degrees) at 12 MPH (10 knots; 5.1 m/s)
Visibility: 6 or more miles (10+ km)
Ceiling: at least 12,000 feet AGL
Clouds: few clouds at 3000 feet AGL
Weather: no significant weather forecast for this period
Text: TEMPO 1409/1412 31010KT
Forecast period: 0900 to 1200 UTC 14 August 2022
Forecast type: TEMPORARY: The following changes expected for less than half the time period
Winds: from the NW (310 degrees) at 12 MPH (10 knots; 5.1 m/s)
Visibility: missing
Ceiling: unknown
Clouds: missing
Weather: no significant weather forecast for this period
Text: BECMG 1418/1421 13006KT
Forecast period: 1800 UTC 14 August 2022 to 0600 UTC 15 August 2022
Forecast type: BECOMING: Conditions expected to become as follows by 2100 UTC 14 August 2022
Winds: from the SE (130 degrees) at 7 MPH (6 knots; 3.1 m/s)
Visibility: 6 or more miles (10+ km)
Ceiling: at least 12,000 feet AGL
Clouds: few clouds at 3000 feet AGL
Weather: no significant weather forecast for this period